createdAt,value
2019-04-07T00:00:03.918Z,20.60
2019-04-07T00:03:08.010Z,20.17
2019-04-07T00:06:11.573Z,20.27
2019-04-07T00:09:15.371Z,20.40
2019-04-07T00:12:18.889Z,20.97
2019-04-07T00:15:22.917Z,19.30
2019-04-07T00:18:27.119Z,19.83
2019-04-07T00:21:30.611Z,19.53
2019-04-07T00:24:34.272Z,20.77
2019-04-07T00:27:37.927Z,20.13
2019-04-07T00:30:41.434Z,20.17
2019-04-07T00:33:45.390Z,20.33
2019-04-07T00:36:48.937Z,21.03
2019-04-07T00:39:52.393Z,21.37
2019-04-07T00:42:56.677Z,20.80
2019-04-07T00:46:00.221Z,20.70
2019-04-07T00:49:04.030Z,20.57
2019-04-07T00:52:09.405Z,21.47
2019-04-07T00:55:13.109Z,20.53
2019-04-07T00:58:16.561Z,22.30
2019-04-07T01:01:20.724Z,22.13
2019-04-07T01:04:24.333Z,21.80
2019-04-07T01:07:28.464Z,22.67
2019-04-07T01:10:31.939Z,21.03
2019-04-07T01:13:35.406Z,22.53
2019-04-07T01:16:39.039Z,22.30
2019-04-07T01:19:43.320Z,22.47
2019-04-07T01:22:47.340Z,22.53
2019-04-07T01:25:51.045Z,22.63
2019-04-07T01:28:55.275Z,22.00
2019-04-07T01:31:59.367Z,22.93
2019-04-07T01:35:03.355Z,23.63
2019-04-07T01:38:07.192Z,23.10
2019-04-07T01:41:15.570Z,23.03
2019-04-07T01:44:37.293Z,23.00
2019-04-07T01:47:45.564Z,23.90
2019-04-07T01:51:08.029Z,24.27
2019-04-07T01:54:13.349Z,23.57
2019-04-07T01:57:27.741Z,23.97
2019-04-07T02:00:50.421Z,23.67
2019-04-07T02:04:04.959Z,24.50
2019-04-07T02:07:19.532Z,24.10
2019-04-07T02:10:27.552Z,22.33
2019-04-07T02:13:41.457Z,23.00
2019-04-07T02:16:49.922Z,23.27
2019-04-07T02:19:55.122Z,23.00
2019-04-07T02:23:03.201Z,22.23
2019-04-07T02:26:08.286Z,22.20
2019-04-07T02:29:19.236Z,22.63
2019-04-07T02:32:31.142Z,22.77
2019-04-07T02:35:53.019Z,23.53
2019-04-07T02:39:07.360Z,22.63
2019-04-07T02:42:15.490Z,23.20
2019-04-07T02:45:35.333Z,23.83
2019-04-07T02:48:49.403Z,22.27
2019-04-07T02:52:03.889Z,23.43
2019-04-07T02:55:28.012Z,22.60
2019-04-07T02:58:33.292Z,21.97
2019-04-07T03:01:41.354Z,23.90
2019-04-07T03:04:50.111Z,23.67
2019-04-07T03:08:04.294Z,22.63
2019-04-07T03:11:09.653Z,22.80
2019-04-07T03:14:14.881Z,24.67
2019-04-07T03:17:37.617Z,23.47
2019-04-07T03:20:43.453Z,24.13
2019-04-07T03:23:54.978Z,22.53
2019-04-07T03:27:16.546Z,23.60
2019-04-07T03:30:32.757Z,23.47
2019-04-07T03:33:40.259Z,23.63
2019-04-07T03:37:12.606Z,23.37
2019-04-07T03:40:06.785Z,23.07
2019-04-07T03:43:21.461Z,24.03
2019-04-07T03:46:29.587Z,22.40
2019-04-07T03:49:47.746Z,21.87
2019-04-07T03:52:58.906Z,23.13
2019-04-07T03:56:16.267Z,21.77
2019-04-07T03:59:30.114Z,23.10
2019-04-07T04:02:35.279Z,21.47
2019-04-07T04:05:41.213Z,22.03
2019-04-07T04:08:55.993Z,23.30
2019-04-07T04:12:13.542Z,22.67
2019-04-07T04:15:22.231Z,23.37
2019-04-07T04:18:26.399Z,22.47
2019-04-07T04:21:30.871Z,23.50
2019-04-07T04:24:35.032Z,22.53
2019-04-07T04:27:39.033Z,22.47
2019-04-07T04:30:42.732Z,23.40
2019-04-07T04:33:46.366Z,23.03
2019-04-07T04:36:50.229Z,23.13
2019-04-07T04:39:54.390Z,23.00
2019-04-07T04:42:58.294Z,22.93
2019-04-07T04:46:01.841Z,22.10
2019-04-07T04:49:06.543Z,23.33
2019-04-07T04:52:10.282Z,23.53
2019-04-07T04:55:13.755Z,22.90
2019-04-07T04:58:17.482Z,21.40
2019-04-07T05:01:21.879Z,21.83
2019-04-07T05:04:25.870Z,19.93
2019-04-07T05:07:30.251Z,21.33
2019-04-07T05:10:33.703Z,20.43
2019-04-07T05:13:37.326Z,19.23
2019-04-07T05:16:40.885Z,19.00
2019-04-07T05:19:44.409Z,18.70
2019-04-07T05:22:48.699Z,19.13
2019-04-07T05:25:52.298Z,19.13
2019-04-07T05:28:56.363Z,20.30
2019-04-07T05:32:00.189Z,19.93
2019-04-07T05:35:05.886Z,21.03
2019-04-07T05:38:09.517Z,17.70
2019-04-07T05:41:13.065Z,18.23
2019-04-07T05:44:16.749Z,17.43
2019-04-07T05:47:21.286Z,16.63
2019-04-07T05:50:27.446Z,16.30
2019-04-07T05:53:30.033Z,16.87
2019-04-07T05:56:33.510Z,15.57
2019-04-07T05:59:37.634Z,14.40
2019-04-07T06:02:41.678Z,14.93
2019-04-07T12:59:50.073Z,22.40
2019-04-07T13:03:10.359Z,21.77
2019-04-07T13:06:24.436Z,20.77
2019-04-07T13:09:33.368Z,21.77
2019-04-07T13:12:57.199Z,19.97
2019-04-07T13:16:20.318Z,21.17
2019-04-07T13:19:35.866Z,23.63
2019-04-07T13:22:40.983Z,22.63
2019-04-07T13:26:03.411Z,23.00
2019-04-07T13:29:20.814Z,24.70
2019-04-07T13:32:39.579Z,23.97
2019-04-07T13:36:05.013Z,24.10
2019-04-07T13:39:12.006Z,23.60
2019-04-07T13:42:33.737Z,24.37
2019-04-07T13:45:48.135Z,23.13
2019-04-07T13:49:05.173Z,25.27
2019-04-07T13:52:10.669Z,24.50
2019-04-07T13:55:32.423Z,25.53
2019-04-07T13:58:37.655Z,25.87
2019-04-07T14:01:42.806Z,24.87
2019-04-07T14:04:51.199Z,24.93
2019-04-07T14:08:09.187Z,24.87
2019-04-07T14:11:30.996Z,24.67
2019-04-07T14:14:52.788Z,25.97
2019-04-07T14:18:13.547Z,27.30
2019-04-07T14:21:29.388Z,26.23
2019-04-07T14:24:38.255Z,26.67
2019-04-07T14:27:43.441Z,27.33
2019-04-07T14:31:05.452Z,26.43
2019-04-07T14:34:13.988Z,27.27
2019-04-07T14:37:20.272Z,26.63
2019-04-07T14:40:40.971Z,27.03
2019-04-07T14:43:49.695Z,26.83
2019-04-07T14:46:55.525Z,27.47
2019-04-07T14:50:01.853Z,26.97
2019-04-07T14:53:20.024Z,26.33
2019-04-07T14:56:35.754Z,25.40
2019-04-07T14:59:49.714Z,26.20
2019-04-07T15:02:53.198Z,27.50
2019-04-07T15:05:58.226Z,27.00
2019-04-07T15:09:06.746Z,25.97
2019-04-07T15:12:17.550Z,27.37
2019-04-07T15:15:16.019Z,27.10
2019-04-07T15:18:19.790Z,28.17
2019-04-07T15:21:23.992Z,26.77
2019-04-07T15:24:28.386Z,26.57
2019-04-07T15:27:32.642Z,25.57
2019-04-07T15:30:36.321Z,25.03
2019-04-07T15:33:39.789Z,25.00
2019-04-07T15:36:54.127Z,26.10
2019-04-07T15:40:00.987Z,24.10
2019-04-07T15:43:05.695Z,25.30
2019-04-07T15:46:08.407Z,24.90
2019-04-07T15:49:12.687Z,24.43
2019-04-07T15:52:16.378Z,24.00
2019-04-07T15:55:19.854Z,23.80
2019-04-07T15:58:26.759Z,24.43
2019-04-07T16:01:28.501Z,23.57
2019-04-07T16:04:32.021Z,24.37
2019-04-07T16:07:36.349Z,24.77
2019-04-07T16:10:40.288Z,24.07
2019-04-07T16:13:44.365Z,24.13
2019-04-07T16:16:47.893Z,22.67
2019-04-07T16:19:54.078Z,23.20
2019-04-07T16:22:57.541Z,21.43
2019-04-07T16:26:02.078Z,22.03
2019-04-07T16:29:07.769Z,22.80
2019-04-07T16:32:11.378Z,22.10
2019-04-07T16:35:16.624Z,21.20
2019-04-07T16:38:20.647Z,23.23
2019-04-07T16:41:24.823Z,21.60
2019-04-07T16:44:28.401Z,23.10
2019-04-07T16:47:34.686Z,23.10
2019-04-07T16:50:37.122Z,22.30
2019-04-07T16:53:42.768Z,22.47
2019-04-07T16:56:45.845Z,22.47
2019-04-07T16:59:49.312Z,23.00
2019-04-07T17:02:52.790Z,21.80
2019-04-07T17:05:59.013Z,21.87
2019-04-07T17:09:02.361Z,22.43
2019-04-07T17:12:09.484Z,21.70
2019-04-07T17:15:11.613Z,21.60
2019-04-07T17:18:26.211Z,22.40
2019-04-07T17:21:29.938Z,22.47
2019-04-07T17:24:34.446Z,21.87
2019-04-07T17:27:40.936Z,21.27
2019-04-07T17:30:43.326Z,20.83
2019-04-07T17:33:47.045Z,20.80
2019-04-07T17:36:55.528Z,22.87
2019-04-07T17:39:57.625Z,21.57
2019-04-07T17:43:02.984Z,21.50
2019-04-07T17:46:25.887Z,21.27
2019-04-07T17:49:33.495Z,20.87
2019-04-07T17:52:54.228Z,21.97
2019-04-07T17:56:00.131Z,21.80
2019-04-07T17:59:11.277Z,22.27
2019-04-07T18:02:33.481Z,22.33
2019-04-07T18:05:57.742Z,21.60
2019-04-07T18:09:07.570Z,21.53
2019-04-07T18:12:14.039Z,22.10
2019-04-07T18:15:36.280Z,21.87
2019-04-07T18:18:59.309Z,25.63
2019-04-07T18:22:22.306Z,20.70
2019-04-07T18:25:42.532Z,20.50
2019-04-07T18:28:48.926Z,21.17
2019-04-07T18:32:09.533Z,21.03
2019-04-07T18:35:14.119Z,20.77
2019-04-07T18:38:19.537Z,21.10
2019-04-07T18:41:28.812Z,21.30
2019-04-07T18:44:41.370Z,20.67
2019-04-07T18:47:47.070Z,20.27
2019-04-07T18:50:55.337Z,21.23
2019-04-07T18:54:03.774Z,21.27
2019-04-07T18:57:11.600Z,21.37
2019-04-07T19:00:23.170Z,21.83
2019-04-07T19:03:28.282Z,21.33
2019-04-07T19:06:33.375Z,21.67
2019-04-07T19:09:39.217Z,22.33
2019-04-07T19:12:49.062Z,21.50
2019-04-07T19:16:00.102Z,21.30
2019-04-07T19:19:14.700Z,20.63
2019-04-07T19:22:32.511Z,21.17
2019-04-07T19:25:41.692Z,20.47
2019-04-07T19:28:44.725Z,22.77
2019-04-07T19:32:06.020Z,25.93
2019-04-07T19:35:28.254Z,21.10
2019-04-07T19:38:33.937Z,20.57
2019-04-07T19:41:52.902Z,20.70
2019-04-07T19:45:03.962Z,19.70
2019-04-07T19:48:11.474Z,21.43
2019-04-07T19:51:17.672Z,20.07
2019-04-07T19:54:23.564Z,20.93
2019-04-07T19:57:29.927Z,21.00
2019-04-07T20:00:52.790Z,21.37
2019-04-07T20:03:54.016Z,23.03
2019-04-07T20:07:15.877Z,21.40
2019-04-07T20:10:24.523Z,23.10
2019-04-07T20:13:30.495Z,22.50
2019-04-07T20:16:52.053Z,23.13
2019-04-07T20:19:57.844Z,22.93
2019-04-07T20:23:04.270Z,23.03
2019-04-07T20:26:21.761Z,22.07
2019-04-07T20:29:42.652Z,23.27
2019-04-07T20:32:49.849Z,23.10
2019-04-07T20:35:55.489Z,23.17
2019-04-07T20:39:03.976Z,23.40
2019-04-07T20:42:17.138Z,22.97
2019-04-07T20:45:38.663Z,22.20
2019-04-07T20:48:46.573Z,23.17
2019-04-07T20:52:03.685Z,23.93
2019-04-07T20:55:09.836Z,23.20
2019-04-07T20:58:44.757Z,23.47
2019-04-07T21:02:03.395Z,24.67
2019-04-07T21:05:16.429Z,24.57
2019-04-07T21:08:34.500Z,25.50
2019-04-07T21:11:43.921Z,24.53
2019-04-07T21:14:49.479Z,24.13
2019-04-07T21:17:55.523Z,23.97
2019-04-07T21:21:17.193Z,22.77
2019-04-07T21:24:40.074Z,23.33
2019-04-07T21:27:49.048Z,24.07
2019-04-07T21:30:57.850Z,23.57
2019-04-07T21:34:03.035Z,24.30
2019-04-07T21:37:13.156Z,23.87
2019-04-07T21:40:15.481Z,25.13
2019-04-07T21:43:26.606Z,23.87
2019-04-07T21:46:42.910Z,25.97
2019-04-07T21:49:51.488Z,24.33
2019-04-07T21:53:12.201Z,25.37
2019-04-07T21:56:17.982Z,26.20
2019-04-07T21:59:26.598Z,25.30
2019-04-07T22:02:33.440Z,24.93
2019-04-07T22:05:39.193Z,26.17
2019-04-07T22:08:47.410Z,24.83
2019-04-07T22:11:51.535Z,25.17
2019-04-07T22:14:56.100Z,24.47
2019-04-07T22:18:00.366Z,23.20
2019-04-07T22:21:03.991Z,24.70
2019-04-07T22:24:07.464Z,25.53
2019-04-07T22:27:11.243Z,26.40
2019-04-07T22:30:15.174Z,24.10
2019-04-07T22:33:22.900Z,26.30
2019-04-07T22:36:24.082Z,25.07
2019-04-07T22:39:28.898Z,24.83
2019-04-07T22:42:33.016Z,25.17
2019-04-07T22:45:37.168Z,24.57
2019-04-07T22:48:41.618Z,24.27
2019-04-07T22:51:47.081Z,25.73
2019-04-07T22:54:50.547Z,24.30
2019-04-07T22:57:54.000Z,24.83
2019-04-07T23:00:58.506Z,24.77
2019-04-07T23:04:02.153Z,24.20
2019-04-07T23:07:06.121Z,24.33
2019-04-07T23:10:09.986Z,25.23
2019-04-07T23:13:13.458Z,25.33
2019-04-07T23:16:17.992Z,23.93
2019-04-07T23:19:22.780Z,23.97
2019-04-07T23:22:26.390Z,23.73
2019-04-07T23:25:30.210Z,23.63
2019-04-07T23:28:34.723Z,23.70
2019-04-07T23:31:38.440Z,22.30
2019-04-07T23:34:41.927Z,21.37
2019-04-07T23:37:45.397Z,21.47
2019-04-07T23:40:49.403Z,22.60
2019-04-07T23:43:53.106Z,19.77
2019-04-07T23:46:57.159Z,20.90
2019-04-07T23:50:00.813Z,20.83
2019-04-07T23:53:41.013Z,18.77
2019-04-07T23:56:44.655Z,20.40
2019-04-07T23:59:48.596Z,19.47
